Terminal Aerodrome Forecast
Issued by NWS

Home | Current Version | Previous Version | Text Only | Print | Product List | Glossary Off
Versions: 1 2 3 4 5 6 7 8 9 10 11 12

465
FTUS43 KICT 211130
TAFRSL
TAF
KRSL 211130Z 2112/2212 22005KT P6SM FEW200
     FM211700 16006KT P6SM FEW200
     FM220400 01008KT P6SM BKN080=

USA.gov is the U.S. government's official web portal to all federal, state and local government web resources and services.